Pagina principale
METAR-TAF:

METAR-TAF

Aeroporti :

Marham, Inghilterra

latitudine: 52-39N, longitudine: 000-34E, altezza: 23 m

Osservazione

Il bollettino è stato emesso 58 minuti fa, alle 18:50 UTC
Vento 9 kt da est
Temperature 5°C
Umidità 93%
Pressione 1002 hPa
Visibilità: 5000 m
Cielo coperto ad un'altezza di 700 ft
foschia

METAR: EGYM 211850Z 10009KT 5000 HZ OVC007 05/04 Q1002 GRN

Ora: 19:48 (19:48 UTC)

Previsione

Il bollettino è stato emesso 3 ore e 10 minuti fa, alle 16:38 UTC
Previsione valida dal 21 alle 18 UTC al 21 alle 24 UTC
Vento 10 kt da est/sud-est
Visibilità 10 km o più
Nuvoloso ad un'altezza di 1400 ft
Temporaneamente
dal 21 alle 18 UTC al 21 alle 23 UTC
Visibilità: 4000 m
Nuvoloso ad un'altezza di 600 ft
foschia
Probabilità 30% :
Temporaneamente
dal 21 alle 20 UTC al 21 alle 23 UTC
Nubi sparse ad un'altezza di 400 ft

TAF: EGYM 211638Z 2118/2124 11010KT 9999 BKN014 TEMPO 2118/2123 4000 HZ BKN006 PROB30 TEMPO 2120/2123 SCT004

Osservazioni e previsioni meteorologiche di più di 4000 aeroporti (messaggi METAR e TAF).

Le stazioni disponibili sono rappresentate dai dischi gialli e rossi sulla carta.

Puntare il mouse per vedere il nome della stazione.

Clicca sopra per visualizzare le osservazioni e previsioni meteorologiche.

Per cambiare la mappa : fare clic sui pulsanti verdi con una croce nera per ingrandire, il pulsante verde con un trattino per diminuire, o sulla freccia verde per le mappe adiacenti.


METAR-TAF: